sensor_id;sensor_type;location;lat;lon;timestamp;P1;durP1;ratioP1;P2;durP2;ratioP2
77948;SDS011;67146;51.236;-0.336;2023-05-10T00:02:17;5.57;;;1.40;;
77948;SDS011;67146;51.236;-0.336;2023-05-10T00:04:43;6.70;;;1.13;;
77948;SDS011;67146;51.236;-0.336;2023-05-10T00:07:08;5.40;;;1.17;;
77948;SDS011;67146;51.236;-0.336;2023-05-10T00:09:35;5.40;;;1.67;;
77948;SDS011;67146;51.236;-0.336;2023-05-10T00:12:00;5.73;;;1.67;;
77948;SDS011;67146;51.236;-0.336;2023-05-10T00:14:25;6.03;;;1.52;;
77948;SDS011;67146;51.236;-0.336;2023-05-10T00:16:51;5.57;;;1.67;;
77948;SDS011;67146;51.236;-0.336;2023-05-10T00:19:16;5.50;;;1.13;;
77948;SDS011;67146;51.236;-0.336;2023-05-10T00:21:42;5.80;;;1.33;;
77948;SDS011;67146;51.236;-0.336;2023-05-10T00:24:07;7.63;;;1.50;;
77948;SDS011;67146;51.236;-0.336;2023-05-10T00:26:32;7.93;;;1.53;;
77948;SDS011;67146;51.236;-0.336;2023-05-10T00:28:58;6.18;;;1.50;;
77948;SDS011;67146;51.236;-0.336;2023-05-10T00:31:23;6.10;;;1.60;;
77948;SDS011;67146;51.236;-0.336;2023-05-10T00:33:48;6.35;;;1.38;;
77948;SDS011;67146;51.236;-0.336;2023-05-10T00:36:14;5.50;;;1.00;;
77948;SDS011;67146;51.236;-0.336;2023-05-10T00:38:39;6.93;;;1.53;;
77948;SDS011;67146;51.236;-0.336;2023-05-10T00:41:05;4.93;;;0.95;;
77948;SDS011;67146;51.236;-0.336;2023-05-10T00:43:30;7.15;;;0.90;;
77948;SDS011;67146;51.236;-0.336;2023-05-10T00:45:56;5.20;;;1.20;;
77948;SDS011;67146;51.236;-0.336;2023-05-10T00:48:21;5.28;;;1.00;;
77948;SDS011;67146;51.236;-0.336;2023-05-10T00:50:47;5.28;;;1.00;;
77948;SDS011;67146;51.236;-0.336;2023-05-10T00:53:12;9.10;;;1.52;;
77948;SDS011;67146;51.236;-0.336;2023-05-10T00:55:38;6.75;;;1.38;;
77948;SDS011;67146;51.236;-0.336;2023-05-10T00:58:04;5.15;;;1.25;;
77948;SDS011;67146;51.236;-0.336;2023-05-10T01:00:29;6.90;;;1.63;;
77948;SDS011;67146;51.236;-0.336;2023-05-10T01:02:57;7.43;;;2.00;;
77948;SDS011;67146;51.236;-0.336;2023-05-10T01:05:23;6.38;;;1.70;;
77948;SDS011;67146;51.236;-0.336;2023-05-10T01:07:48;7.30;;;2.00;;
77948;SDS011;67146;51.236;-0.336;2023-05-10T01:10:13;9.48;;;2.25;;
77948;SDS011;67146;51.236;-0.336;2023-05-10T01:12:42;7.30;;;2.03;;
77948;SDS011;67146;51.236;-0.336;2023-05-10T01:15:08;7.13;;;1.85;;
77948;SDS011;67146;51.236;-0.336;2023-05-10T01:17:38;9.55;;;2.22;;
77948;SDS011;67146;51.236;-0.336;2023-05-10T01:20:05;9.13;;;2.50;;
77948;SDS011;67146;51.236;-0.336;2023-05-10T01:22:46;9.25;;;2.28;;
77948;SDS011;67146;51.236;-0.336;2023-05-10T01:25:32;10.20;;;2.45;;
77948;SDS011;67146;51.236;-0.336;2023-05-10T01:33:52;7.45;;;2.50;;
77948;SDS011;67146;51.236;-0.336;2023-05-10T01:39:09;12.27;;;3.30;;
77948;SDS011;67146;51.236;-0.336;2023-05-10T01:44:16;8.90;;;3.60;;
77948;SDS011;67146;51.236;-0.336;2023-05-10T01:46:58;9.10;;;2.80;;
77948;SDS011;67146;51.236;-0.336;2023-05-10T01:49:54;9.80;;;3.85;;
77948;SDS011;67146;51.236;-0.336;2023-05-10T01:52:32;8.43;;;2.80;;
77948;SDS011;67146;51.236;-0.336;2023-05-10T01:55:02;10.40;;;3.97;;
77948;SDS011;67146;51.236;-0.336;2023-05-10T01:57:34;11.05;;;3.20;;
77948;SDS011;67146;51.236;-0.336;2023-05-10T02:00:02;12.07;;;4.00;;
77948;SDS011;67146;51.236;-0.336;2023-05-10T02:02:30;11.30;;;3.83;;
77948;SDS011;67146;51.236;-0.336;2023-05-10T02:04:58;12.60;;;3.78;;
77948;SDS011;67146;51.236;-0.336;2023-05-10T02:07:24;11.10;;;4.93;;
77948;SDS011;67146;51.236;-0.336;2023-05-10T02:09:51;10.27;;;3.45;;
77948;SDS011;67146;51.236;-0.336;2023-05-10T02:12:16;12.55;;;3.65;;
77948;SDS011;67146;51.236;-0.336;2023-05-10T02:14:43;11.23;;;3.55;;
77948;SDS011;67146;51.236;-0.336;2023-05-10T02:17:09;12.20;;;4.00;;
77948;SDS011;67146;51.236;-0.336;2023-05-10T02:19:35;11.88;;;4.05;;
77948;SDS011;67146;51.236;-0.336;2023-05-10T02:22:03;12.45;;;3.80;;
77948;SDS011;67146;51.236;-0.336;2023-05-10T02:24:29;12.98;;;4.22;;
77948;SDS011;67146;51.236;-0.336;2023-05-10T02:26:54;12.02;;;3.75;;
77948;SDS011;67146;51.236;-0.336;2023-05-10T02:29:23;14.18;;;4.47;;
77948;SDS011;67146;51.236;-0.336;2023-05-10T02:31:51;14.07;;;4.47;;
77948;SDS011;67146;51.236;-0.336;2023-05-10T02:34:18;12.82;;;3.70;;
77948;SDS011;67146;51.236;-0.336;2023-05-10T02:36:44;13.60;;;4.43;;
77948;SDS011;67146;51.236;-0.336;2023-05-10T02:39:09;12.00;;;3.90;;
77948;SDS011;67146;51.236;-0.336;2023-05-10T02:41:38;11.95;;;3.42;;
77948;SDS011;67146;51.236;-0.336;2023-05-10T02:44:05;12.45;;;3.65;;
77948;SDS011;67146;51.236;-0.336;2023-05-10T02:46:32;15.88;;;3.80;;
77948;SDS011;67146;51.236;-0.336;2023-05-10T02:48:58;10.90;;;3.53;;
77948;SDS011;67146;51.236;-0.336;2023-05-10T02:51:24;12.13;;;3.60;;
77948;SDS011;67146;51.236;-0.336;2023-05-10T02:53:50;9.73;;;3.53;;
77948;SDS011;67146;51.236;-0.336;2023-05-10T02:56:20;11.63;;;3.40;;
77948;SDS011;67146;51.236;-0.336;2023-05-10T02:58:50;14.32;;;4.20;;
77948;SDS011;67146;51.236;-0.336;2023-05-10T03:01:15;12.53;;;4.20;;
77948;SDS011;67146;51.236;-0.336;2023-05-10T03:03:40;14.13;;;3.90;;
77948;SDS011;67146;51.236;-0.336;2023-05-10T03:06:06;12.85;;;4.90;;
77948;SDS011;67146;51.236;-0.336;2023-05-10T03:08:31;11.30;;;3.90;;
77948;SDS011;67146;51.236;-0.336;2023-05-10T03:13:54;15.88;;;4.75;;
77948;SDS011;67146;51.236;-0.336;2023-05-10T03:16:27;10.90;;;3.88;;
77948;SDS011;67146;51.236;-0.336;2023-05-10T03:22:04;13.80;;;4.47;;
77948;SDS011;67146;51.236;-0.336;2023-05-10T03:24:34;15.45;;;3.95;;
77948;SDS011;67146;51.236;-0.336;2023-05-10T03:27:01;15.13;;;4.50;;
77948;SDS011;67146;51.236;-0.336;2023-05-10T03:29:29;15.40;;;4.30;;
77948;SDS011;67146;51.236;-0.336;2023-05-10T03:31:55;13.25;;;4.35;;
77948;SDS011;67146;51.236;-0.336;2023-05-10T03:34:23;17.73;;;4.63;;
77948;SDS011;67146;51.236;-0.336;2023-05-10T03:36:49;12.40;;;4.72;;
77948;SDS011;67146;51.236;-0.336;2023-05-10T03:39:14;14.65;;;5.07;;
77948;SDS011;67146;51.236;-0.336;2023-05-10T03:41:40;17.83;;;5.10;;
77948;SDS011;67146;51.236;-0.336;2023-05-10T03:44:05;16.15;;;5.00;;
77948;SDS011;67146;51.236;-0.336;2023-05-10T03:46:30;15.98;;;5.07;;
77948;SDS011;67146;51.236;-0.336;2023-05-10T03:48:56;17.87;;;5.17;;
77948;SDS011;67146;51.236;-0.336;2023-05-10T03:51:21;14.60;;;4.57;;
77948;SDS011;67146;51.236;-0.336;2023-05-10T03:53:47;18.60;;;5.22;;
77948;SDS011;67146;51.236;-0.336;2023-05-10T03:56:12;16.17;;;4.70;;
77948;SDS011;67146;51.236;-0.336;2023-05-10T03:58:37;15.40;;;5.30;;
77948;SDS011;67146;51.236;-0.336;2023-05-10T04:01:03;16.87;;;5.40;;
77948;SDS011;67146;51.236;-0.336;2023-05-10T04:03:28;11.95;;;4.18;;
77948;SDS011;67146;51.236;-0.336;2023-05-10T04:06:00;17.80;;;5.37;;
77948;SDS011;67146;51.236;-0.336;2023-05-10T04:08:26;17.48;;;5.38;;
77948;SDS011;67146;51.236;-0.336;2023-05-10T04:10:51;20.87;;;5.13;;
77948;SDS011;67146;51.236;-0.336;2023-05-10T04:13:17;15.20;;;4.83;;
77948;SDS011;67146;51.236;-0.336;2023-05-10T04:15:42;20.33;;;5.23;;
77948;SDS011;67146;51.236;-0.336;2023-05-10T04:18:08;15.75;;;4.78;;
77948;SDS011;67146;51.236;-0.336;2023-05-10T04:20:34;25.23;;;5.35;;
77948;SDS011;67146;51.236;-0.336;2023-05-10T04:22:59;19.50;;;5.22;;
77948;SDS011;67146;51.236;-0.336;2023-05-10T04:25:24;19.10;;;5.07;;
77948;SDS011;67146;51.236;-0.336;2023-05-10T04:27:50;17.30;;;5.90;;
77948;SDS011;67146;51.236;-0.336;2023-05-10T04:30:15;21.20;;;5.90;;
77948;SDS011;67146;51.236;-0.336;2023-05-10T04:32:41;17.98;;;4.72;;
77948;SDS011;67146;51.236;-0.336;2023-05-10T04:35:06;23.07;;;6.20;;
77948;SDS011;67146;51.236;-0.336;2023-05-10T04:37:32;16.83;;;5.22;;
77948;SDS011;67146;51.236;-0.336;2023-05-10T04:39:57;15.30;;;5.20;;
77948;SDS011;67146;51.236;-0.336;2023-05-10T04:42:24;14.35;;;4.45;;
77948;SDS011;67146;51.236;-0.336;2023-05-10T04:44:50;17.35;;;4.85;;
77948;SDS011;67146;51.236;-0.336;2023-05-10T04:47:16;13.73;;;4.25;;
77948;SDS011;67146;51.236;-0.336;2023-05-10T04:49:42;16.88;;;4.97;;
77948;SDS011;67146;51.236;-0.336;2023-05-10T04:52:07;14.63;;;4.60;;
77948;SDS011;67146;51.236;-0.336;2023-05-10T04:54:32;14.97;;;4.97;;
77948;SDS011;67146;51.236;-0.336;2023-05-10T04:56:58;16.67;;;4.30;;
77948;SDS011;67146;51.236;-0.336;2023-05-10T04:59:23;14.37;;;4.60;;
77948;SDS011;67146;51.236;-0.336;2023-05-10T05:01:48;13.70;;;3.43;;
77948;SDS011;67146;51.236;-0.336;2023-05-10T05:04:13;15.00;;;3.60;;
77948;SDS011;67146;51.236;-0.336;2023-05-10T05:06:39;20.42;;;4.28;;
77948;SDS011;67146;51.236;-0.336;2023-05-10T05:09:05;14.50;;;4.38;;
77948;SDS011;67146;51.236;-0.336;2023-05-10T05:11:30;13.00;;;3.33;;
77948;SDS011;67146;51.236;-0.336;2023-05-10T05:13:55;16.27;;;3.87;;
77948;SDS011;67146;51.236;-0.336;2023-05-10T05:16:21;15.18;;;3.05;;
77948;SDS011;67146;51.236;-0.336;2023-05-10T05:18:46;11.25;;;3.00;;
77948;SDS011;67146;51.236;-0.336;2023-05-10T05:21:15;12.50;;;3.03;;
77948;SDS011;67146;51.236;-0.336;2023-05-10T05:23:41;10.35;;;3.13;;
77948;SDS011;67146;51.236;-0.336;2023-05-10T05:26:06;10.50;;;2.73;;
77948;SDS011;67146;51.236;-0.336;2023-05-10T05:28:31;9.73;;;2.20;;
77948;SDS011;67146;51.236;-0.336;2023-05-10T05:30:59;8.68;;;2.22;;
77948;SDS011;67146;51.236;-0.336;2023-05-10T05:33:25;8.85;;;2.25;;
77948;SDS011;67146;51.236;-0.336;2023-05-10T05:35:50;8.32;;;2.30;;
77948;SDS011;67146;51.236;-0.336;2023-05-10T05:38:16;7.97;;;3.03;;
77948;SDS011;67146;51.236;-0.336;2023-05-10T05:40:42;7.53;;;2.15;;
77948;SDS011;67146;51.236;-0.336;2023-05-10T05:43:07;9.73;;;2.17;;
77948;SDS011;67146;51.236;-0.336;2023-05-10T05:45:32;9.07;;;2.10;;
77948;SDS011;67146;51.236;-0.336;2023-05-10T05:47:58;9.30;;;2.90;;
77948;SDS011;67146;51.236;-0.336;2023-05-10T05:50:23;10.50;;;1.93;;
77948;SDS011;67146;51.236;-0.336;2023-05-10T05:52:48;7.90;;;2.07;;
77948;SDS011;67146;51.236;-0.336;2023-05-10T05:55:14;8.35;;;2.03;;
77948;SDS011;67146;51.236;-0.336;2023-05-10T05:57:39;8.90;;;2.13;;
77948;SDS011;67146;51.236;-0.336;2023-05-10T06:00:05;6.88;;;2.70;;
77948;SDS011;67146;51.236;-0.336;2023-05-10T06:02:31;8.38;;;2.53;;
77948;SDS011;67146;51.236;-0.336;2023-05-10T06:04:56;7.53;;;2.20;;
77948;SDS011;67146;51.236;-0.336;2023-05-10T06:07:21;8.45;;;2.97;;
77948;SDS011;67146;51.236;-0.336;2023-05-10T06:09:47;6.97;;;2.13;;
77948;SDS011;67146;51.236;-0.336;2023-05-10T06:12:12;9.00;;;2.20;;
77948;SDS011;67146;51.236;-0.336;2023-05-10T06:14:37;7.60;;;2.00;;
77948;SDS011;67146;51.236;-0.336;2023-05-10T06:17:03;12.10;;;2.93;;
77948;SDS011;67146;51.236;-0.336;2023-05-10T06:19:30;7.15;;;2.47;;
77948;SDS011;67146;51.236;-0.336;2023-05-10T06:21:55;9.32;;;2.63;;
77948;SDS011;67146;51.236;-0.336;2023-05-10T06:24:21;8.13;;;2.47;;
77948;SDS011;67146;51.236;-0.336;2023-05-10T06:26:46;7.93;;;3.03;;
77948;SDS011;67146;51.236;-0.336;2023-05-10T06:29:12;11.35;;;3.45;;
77948;SDS011;67146;51.236;-0.336;2023-05-10T06:31:37;5.93;;;2.27;;
77948;SDS011;67146;51.236;-0.336;2023-05-10T06:34:02;9.00;;;3.00;;
77948;SDS011;67146;51.236;-0.336;2023-05-10T06:36:28;6.83;;;2.20;;
77948;SDS011;67146;51.236;-0.336;2023-05-10T06:38:53;6.90;;;2.33;;
77948;SDS011;67146;51.236;-0.336;2023-05-10T06:41:19;7.65;;;2.28;;
77948;SDS011;67146;51.236;-0.336;2023-05-10T06:43:44;7.43;;;2.77;;
77948;SDS011;67146;51.236;-0.336;2023-05-10T06:46:09;7.70;;;2.22;;
77948;SDS011;67146;51.236;-0.336;2023-05-10T06:48:35;7.38;;;2.47;;
77948;SDS011;67146;51.236;-0.336;2023-05-10T06:51:00;7.72;;;2.60;;
77948;SDS011;67146;51.236;-0.336;2023-05-10T06:53:25;7.80;;;2.85;;
77948;SDS011;67146;51.236;-0.336;2023-05-10T06:55:51;10.07;;;2.57;;
77948;SDS011;67146;51.236;-0.336;2023-05-10T06:58:16;7.73;;;2.77;;
77948;SDS011;67146;51.236;-0.336;2023-05-10T07:00:41;8.03;;;2.83;;
77948;SDS011;67146;51.236;-0.336;2023-05-10T07:03:09;8.73;;;2.65;;
77948;SDS011;67146;51.236;-0.336;2023-05-10T07:05:35;9.48;;;2.92;;
77948;SDS011;67146;51.236;-0.336;2023-05-10T07:08:00;7.82;;;3.10;;
77948;SDS011;67146;51.236;-0.336;2023-05-10T07:10:25;6.95;;;2.50;;
77948;SDS011;67146;51.236;-0.336;2023-05-10T07:12:51;9.57;;;3.42;;
77948;SDS011;67146;51.236;-0.336;2023-05-10T07:15:16;8.83;;;2.80;;
77948;SDS011;67146;51.236;-0.336;2023-05-10T07:17:42;7.32;;;3.63;;
77948;SDS011;67146;51.236;-0.336;2023-05-10T07:20:08;9.05;;;3.88;;
77948;SDS011;67146;51.236;-0.336;2023-05-10T07:22:33;10.00;;;3.70;;
77948;SDS011;67146;51.236;-0.336;2023-05-10T07:24:58;9.60;;;3.40;;
77948;SDS011;67146;51.236;-0.336;2023-05-10T07:27:24;10.10;;;4.03;;
77948;SDS011;67146;51.236;-0.336;2023-05-10T07:29:49;9.00;;;3.95;;
77948;SDS011;67146;51.236;-0.336;2023-05-10T07:32:15;8.07;;;3.10;;
77948;SDS011;67146;51.236;-0.336;2023-05-10T07:34:40;11.00;;;3.90;;
77948;SDS011;67146;51.236;-0.336;2023-05-10T07:37:06;9.10;;;3.40;;
77948;SDS011;67146;51.236;-0.336;2023-05-10T07:39:32;11.52;;;4.25;;
77948;SDS011;67146;51.236;-0.336;2023-05-10T07:41:57;10.40;;;4.20;;
77948;SDS011;67146;51.236;-0.336;2023-05-10T07:44:23;10.40;;;3.77;;
77948;SDS011;67146;51.236;-0.336;2023-05-10T07:46:48;9.60;;;3.47;;
77948;SDS011;67146;51.236;-0.336;2023-05-10T07:49:14;8.63;;;3.42;;
77948;SDS011;67146;51.236;-0.336;2023-05-10T07:51:39;9.63;;;3.17;;
77948;SDS011;67146;51.236;-0.336;2023-05-10T07:54:04;7.90;;;3.42;;
77948;SDS011;67146;51.236;-0.336;2023-05-10T07:56:31;8.30;;;3.63;;
77948;SDS011;67146;51.236;-0.336;2023-05-10T07:58:57;7.75;;;3.20;;
77948;SDS011;67146;51.236;-0.336;2023-05-10T08:01:24;7.65;;;3.08;;
77948;SDS011;67146;51.236;-0.336;2023-05-10T08:03:49;9.00;;;3.78;;
77948;SDS011;67146;51.236;-0.336;2023-05-10T08:06:16;10.00;;;4.07;;
77948;SDS011;67146;51.236;-0.336;2023-05-10T08:08:42;9.63;;;3.80;;
77948;SDS011;67146;51.236;-0.336;2023-05-10T08:11:08;9.25;;;3.25;;
77948;SDS011;67146;51.236;-0.336;2023-05-10T08:13:33;9.07;;;3.55;;
77948;SDS011;67146;51.236;-0.336;2023-05-10T08:15:58;9.57;;;4.10;;
77948;SDS011;67146;51.236;-0.336;2023-05-10T08:18:24;8.77;;;4.05;;
77948;SDS011;67146;51.236;-0.336;2023-05-10T08:20:49;12.97;;;4.13;;
77948;SDS011;67146;51.236;-0.336;2023-05-10T08:23:15;9.23;;;3.33;;
77948;SDS011;67146;51.236;-0.336;2023-05-10T08:25:40;10.93;;;4.25;;
77948;SDS011;67146;51.236;-0.336;2023-05-10T08:28:05;8.50;;;3.47;;
77948;SDS011;67146;51.236;-0.336;2023-05-10T08:30:31;10.53;;;4.43;;
77948;SDS011;67146;51.236;-0.336;2023-05-10T08:32:56;8.07;;;3.27;;
77948;SDS011;67146;51.236;-0.336;2023-05-10T08:35:21;10.03;;;3.93;;
77948;SDS011;67146;51.236;-0.336;2023-05-10T08:37:47;7.57;;;3.20;;
77948;SDS011;67146;51.236;-0.336;2023-05-10T08:40:12;7.47;;;3.90;;
77948;SDS011;67146;51.236;-0.336;2023-05-10T08:42:39;8.05;;;3.95;;
77948;SDS011;67146;51.236;-0.336;2023-05-10T08:45:06;7.57;;;4.00;;
77948;SDS011;67146;51.236;-0.336;2023-05-10T08:47:32;12.27;;;4.15;;
77948;SDS011;67146;51.236;-0.336;2023-05-10T08:49:58;8.57;;;4.45;;
77948;SDS011;67146;51.236;-0.336;2023-05-10T08:52:25;9.18;;;4.45;;
77948;SDS011;67146;51.236;-0.336;2023-05-10T08:54:51;10.07;;;4.45;;
77948;SDS011;67146;51.236;-0.336;2023-05-10T08:57:16;9.32;;;4.05;;
77948;SDS011;67146;51.236;-0.336;2023-05-10T08:59:42;10.63;;;4.10;;
77948;SDS011;67146;51.236;-0.336;2023-05-10T09:02:07;8.80;;;3.75;;
77948;SDS011;67146;51.236;-0.336;2023-05-10T09:04:34;10.90;;;3.92;;
77948;SDS011;67146;51.236;-0.336;2023-05-10T09:07:00;7.57;;;3.93;;
77948;SDS011;67146;51.236;-0.336;2023-05-10T09:09:26;8.25;;;4.25;;
77948;SDS011;67146;51.236;-0.336;2023-05-10T09:11:52;7.90;;;4.65;;
77948;SDS011;67146;51.236;-0.336;2023-05-10T09:14:18;7.82;;;3.47;;
77948;SDS011;67146;51.236;-0.336;2023-05-10T09:16:45;9.25;;;3.83;;
77948;SDS011;67146;51.236;-0.336;2023-05-10T09:19:11;9.48;;;3.72;;
77948;SDS011;67146;51.236;-0.336;2023-05-10T09:21:36;8.73;;;3.85;;
77948;SDS011;67146;51.236;-0.336;2023-05-10T09:24:06;8.20;;;3.72;;
77948;SDS011;67146;51.236;-0.336;2023-05-10T09:26:32;7.55;;;2.90;;
77948;SDS011;67146;51.236;-0.336;2023-05-10T09:28:59;9.88;;;3.58;;
77948;SDS011;67146;51.236;-0.336;2023-05-10T09:31:25;9.40;;;3.33;;
77948;SDS011;67146;51.236;-0.336;2023-05-10T09:34:15;10.85;;;3.55;;
77948;SDS011;67146;51.236;-0.336;2023-05-10T09:36:51;8.98;;;3.13;;
77948;SDS011;67146;51.236;-0.336;2023-05-10T09:39:18;8.25;;;2.85;;
77948;SDS011;67146;51.236;-0.336;2023-05-10T09:41:43;8.57;;;2.85;;
77948;SDS011;67146;51.236;-0.336;2023-05-10T09:44:09;8.05;;;3.55;;
77948;SDS011;67146;51.236;-0.336;2023-05-10T09:46:34;7.63;;;3.35;;
77948;SDS011;67146;51.236;-0.336;2023-05-10T09:49:00;7.82;;;3.03;;
77948;SDS011;67146;51.236;-0.336;2023-05-10T09:51:26;8.03;;;2.37;;
77948;SDS011;67146;51.236;-0.336;2023-05-10T09:54:13;6.38;;;3.22;;
77948;SDS011;67146;51.236;-0.336;2023-05-10T09:56:40;9.15;;;2.58;;
77948;SDS011;67146;51.236;-0.336;2023-05-10T09:59:06;6.65;;;2.97;;
77948;SDS011;67146;51.236;-0.336;2023-05-10T10:01:33;7.20;;;2.67;;
77948;SDS011;67146;51.236;-0.336;2023-05-10T10:03:59;7.13;;;2.35;;
77948;SDS011;67146;51.236;-0.336;2023-05-10T10:06:24;6.90;;;2.10;;
77948;SDS011;67146;51.236;-0.336;2023-05-10T10:08:50;6.68;;;2.00;;
77948;SDS011;67146;51.236;-0.336;2023-05-10T10:11:16;7.55;;;2.17;;
77948;SDS011;67146;51.236;-0.336;2023-05-10T10:13:41;5.28;;;2.67;;
77948;SDS011;67146;51.236;-0.336;2023-05-10T10:16:07;7.27;;;2.70;;
77948;SDS011;67146;51.236;-0.336;2023-05-10T10:18:33;6.60;;;2.00;;
77948;SDS011;67146;51.236;-0.336;2023-05-10T10:21:03;6.88;;;1.95;;
77948;SDS011;67146;51.236;-0.336;2023-05-10T10:23:30;7.40;;;2.05;;
77948;SDS011;67146;51.236;-0.336;2023-05-10T10:25:58;4.83;;;2.10;;
77948;SDS011;67146;51.236;-0.336;2023-05-10T10:31:40;5.45;;;2.10;;
77948;SDS011;67146;51.236;-0.336;2023-05-10T10:36:47;4.97;;;1.70;;
77948;SDS011;67146;51.236;-0.336;2023-05-10T10:39:13;5.90;;;1.60;;
77948;SDS011;67146;51.236;-0.336;2023-05-10T10:41:39;6.35;;;1.80;;
77948;SDS011;67146;51.236;-0.336;2023-05-10T10:49:49;7.70;;;1.85;;
77948;SDS011;67146;51.236;-0.336;2023-05-10T10:57:23;5.80;;;1.23;;
77948;SDS011;67146;51.236;-0.336;2023-05-10T10:59:48;6.68;;;1.65;;
77948;SDS011;67146;51.236;-0.336;2023-05-10T11:02:57;7.55;;;1.30;;
77948;SDS011;67146;51.236;-0.336;2023-05-10T11:05:22;6.60;;;1.23;;
77948;SDS011;67146;51.236;-0.336;2023-05-10T11:07:52;7.88;;;1.65;;
77948;SDS011;67146;51.236;-0.336;2023-05-10T11:10:21;5.60;;;1.92;;
77948;SDS011;67146;51.236;-0.336;2023-05-10T11:12:51;7.85;;;1.70;;
77948;SDS011;67146;51.236;-0.336;2023-05-10T11:15:17;6.75;;;2.17;;
77948;SDS011;67146;51.236;-0.336;2023-05-10T11:17:43;8.20;;;2.50;;
77948;SDS011;67146;51.236;-0.336;2023-05-10T11:20:11;9.03;;;2.43;;
77948;SDS011;67146;51.236;-0.336;2023-05-10T11:22:52;7.72;;;1.73;;
77948;SDS011;67146;51.236;-0.336;2023-05-10T11:25:18;8.77;;;2.28;;
77948;SDS011;67146;51.236;-0.336;2023-05-10T11:27:44;7.53;;;1.98;;
77948;SDS011;67146;51.236;-0.336;2023-05-10T11:30:10;8.55;;;2.20;;
77948;SDS011;67146;51.236;-0.336;2023-05-10T11:32:40;8.73;;;1.75;;
77948;SDS011;67146;51.236;-0.336;2023-05-10T11:35:09;7.43;;;2.30;;
77948;SDS011;67146;51.236;-0.336;2023-05-10T11:37:35;7.22;;;1.60;;
77948;SDS011;67146;51.236;-0.336;2023-05-10T11:40:01;7.28;;;1.95;;
77948;SDS011;67146;51.236;-0.336;2023-05-10T11:42:27;7.13;;;1.52;;
77948;SDS011;67146;51.236;-0.336;2023-05-10T11:44:53;6.50;;;2.00;;
77948;SDS011;67146;51.236;-0.336;2023-05-10T11:47:18;9.77;;;1.85;;
77948;SDS011;67146;51.236;-0.336;2023-05-10T11:49:44;7.00;;;2.42;;
77948;SDS011;67146;51.236;-0.336;2023-05-10T11:52:10;7.57;;;1.90;;
77948;SDS011;67146;51.236;-0.336;2023-05-10T11:54:43;6.75;;;2.20;;
77948;SDS011;67146;51.236;-0.336;2023-05-10T11:57:10;8.60;;;2.42;;
77948;SDS011;67146;51.236;-0.336;2023-05-10T11:59:36;8.70;;;2.43;;
77948;SDS011;67146;51.236;-0.336;2023-05-10T12:02:01;7.38;;;2.53;;
77948;SDS011;67146;51.236;-0.336;2023-05-10T12:04:28;7.55;;;2.20;;
77948;SDS011;67146;51.236;-0.336;2023-05-10T12:06:54;7.50;;;2.20;;
77948;SDS011;67146;51.236;-0.336;2023-05-10T12:09:19;12.68;;;1.85;;
77948;SDS011;67146;51.236;-0.336;2023-05-10T12:11:45;11.10;;;1.57;;
77948;SDS011;67146;51.236;-0.336;2023-05-10T12:14:10;10.00;;;1.92;;
77948;SDS011;67146;51.236;-0.336;2023-05-10T12:16:36;9.32;;;2.17;;
77948;SDS011;67146;51.236;-0.336;2023-05-10T12:19:01;8.35;;;1.23;;
77948;SDS011;67146;51.236;-0.336;2023-05-10T12:21:29;6.75;;;1.20;;
77948;SDS011;67146;51.236;-0.336;2023-05-10T12:24:01;4.78;;;1.48;;
77948;SDS011;67146;51.236;-0.336;2023-05-10T12:26:28;5.60;;;1.33;;
77948;SDS011;67146;51.236;-0.336;2023-05-10T12:28:54;8.48;;;1.92;;
77948;SDS011;67146;51.236;-0.336;2023-05-10T12:31:19;7.47;;;1.45;;
77948;SDS011;67146;51.236;-0.336;2023-05-10T12:33:45;6.53;;;1.50;;
77948;SDS011;67146;51.236;-0.336;2023-05-10T12:36:12;8.20;;;2.10;;
77948;SDS011;67146;51.236;-0.336;2023-05-10T12:38:39;7.15;;;1.58;;
77948;SDS011;67146;51.236;-0.336;2023-05-10T12:41:11;4.57;;;1.52;;
77948;SDS011;67146;51.236;-0.336;2023-05-10T12:43:38;7.57;;;1.60;;
77948;SDS011;67146;51.236;-0.336;2023-05-10T12:46:16;7.43;;;1.65;;
77948;SDS011;67146;51.236;-0.336;2023-05-10T12:48:42;7.03;;;1.48;;
77948;SDS011;67146;51.236;-0.336;2023-05-10T12:51:09;5.00;;;1.33;;
77948;SDS011;67146;51.236;-0.336;2023-05-10T12:53:36;8.23;;;1.35;;
77948;SDS011;67146;51.236;-0.336;2023-05-10T12:56:02;6.60;;;1.25;;
77948;SDS011;67146;51.236;-0.336;2023-05-10T12:58:27;4.93;;;0.47;;
77948;SDS011;67146;51.236;-0.336;2023-05-10T13:00:52;6.47;;;1.53;;
77948;SDS011;67146;51.236;-0.336;2023-05-10T13:03:21;5.55;;;1.00;;
77948;SDS011;67146;51.236;-0.336;2023-05-10T13:05:47;6.63;;;0.82;;
77948;SDS011;67146;51.236;-0.336;2023-05-10T13:08:12;4.10;;;0.88;;
77948;SDS011;67146;51.236;-0.336;2023-05-10T13:10:37;6.85;;;1.23;;
77948;SDS011;67146;51.236;-0.336;2023-05-10T13:13:03;5.53;;;1.20;;
77948;SDS011;67146;51.236;-0.336;2023-05-10T13:15:28;5.57;;;0.75;;
77948;SDS011;67146;51.236;-0.336;2023-05-10T13:17:53;7.87;;;1.00;;
77948;SDS011;67146;51.236;-0.336;2023-05-10T13:20:19;7.10;;;1.10;;
77948;SDS011;67146;51.236;-0.336;2023-05-10T13:22:44;6.70;;;0.93;;
77948;SDS011;67146;51.236;-0.336;2023-05-10T13:25:10;5.50;;;1.15;;
77948;SDS011;67146;51.236;-0.336;2023-05-10T13:27:36;3.53;;;0.63;;
77948;SDS011;67146;51.236;-0.336;2023-05-10T13:30:02;4.03;;;0.50;;
77948;SDS011;67146;51.236;-0.336;2023-05-10T13:32:28;6.40;;;0.90;;
77948;SDS011;67146;51.236;-0.336;2023-05-10T13:34:54;4.22;;;0.50;;
77948;SDS011;67146;51.236;-0.336;2023-05-10T13:37:19;4.72;;;0.82;;
77948;SDS011;67146;51.236;-0.336;2023-05-10T13:39:45;7.75;;;0.80;;
77948;SDS011;67146;51.236;-0.336;2023-05-10T13:42:10;7.20;;;0.80;;
77948;SDS011;67146;51.236;-0.336;2023-05-10T13:44:36;8.03;;;0.83;;
77948;SDS011;67146;51.236;-0.336;2023-05-10T13:47:03;6.43;;;1.25;;
77948;SDS011;67146;51.236;-0.336;2023-05-10T13:49:29;4.45;;;1.27;;
77948;SDS011;67146;51.236;-0.336;2023-05-10T13:51:54;5.27;;;1.10;;
77948;SDS011;67146;51.236;-0.336;2023-05-10T13:54:19;6.17;;;0.97;;
77948;SDS011;67146;51.236;-0.336;2023-05-10T13:56:54;3.65;;;0.95;;
77948;SDS011;67146;51.236;-0.336;2023-05-10T13:59:19;4.35;;;0.80;;
77948;SDS011;67146;51.236;-0.336;2023-05-10T14:01:45;4.27;;;0.70;;
77948;SDS011;67146;51.236;-0.336;2023-05-10T14:04:10;5.67;;;0.67;;
77948;SDS011;67146;51.236;-0.336;2023-05-10T14:06:36;3.80;;;0.45;;
77948;SDS011;67146;51.236;-0.336;2023-05-10T14:09:02;3.65;;;0.47;;
77948;SDS011;67146;51.236;-0.336;2023-05-10T14:11:28;4.18;;;0.70;;
77948;SDS011;67146;51.236;-0.336;2023-05-10T14:13:53;4.03;;;1.10;;
77948;SDS011;67146;51.236;-0.336;2023-05-10T14:16:18;4.43;;;0.57;;
77948;SDS011;67146;51.236;-0.336;2023-05-10T14:18:45;4.45;;;0.50;;
77948;SDS011;67146;51.236;-0.336;2023-05-10T14:21:10;4.07;;;0.75;;
77948;SDS011;67146;51.236;-0.336;2023-05-10T14:23:36;5.57;;;0.95;;
77948;SDS011;67146;51.236;-0.336;2023-05-10T14:26:01;5.10;;;0.80;;
77948;SDS011;67146;51.236;-0.336;2023-05-10T14:28:27;5.85;;;0.47;;
77948;SDS011;67146;51.236;-0.336;2023-05-10T14:30:53;5.40;;;0.60;;
77948;SDS011;67146;51.236;-0.336;2023-05-10T14:33:18;3.70;;;0.70;;
77948;SDS011;67146;51.236;-0.336;2023-05-10T14:35:44;3.70;;;1.00;;
77948;SDS011;67146;51.236;-0.336;2023-05-10T14:38:10;4.00;;;0.77;;
77948;SDS011;67146;51.236;-0.336;2023-05-10T14:40:35;5.70;;;0.55;;
77948;SDS011;67146;51.236;-0.336;2023-05-10T14:43:01;3.03;;;0.43;;
77948;SDS011;67146;51.236;-0.336;2023-05-10T14:45:26;3.63;;;0.30;;
77948;SDS011;67146;51.236;-0.336;2023-05-10T14:47:51;3.03;;;0.43;;
77948;SDS011;67146;51.236;-0.336;2023-05-10T14:50:17;5.68;;;0.70;;
77948;SDS011;67146;51.236;-0.336;2023-05-10T14:52:43;7.03;;;1.02;;
77948;SDS011;67146;51.236;-0.336;2023-05-10T14:55:08;4.30;;;0.73;;
77948;SDS011;67146;51.236;-0.336;2023-05-10T14:57:34;4.32;;;0.52;;
77948;SDS011;67146;51.236;-0.336;2023-05-10T14:59:59;4.95;;;0.85;;
77948;SDS011;67146;51.236;-0.336;2023-05-10T15:02:25;4.03;;;0.70;;